sensor_id;sensor_type;location;lat;lon;timestamp;temperature;humidity
16116;DHT22;8162;47.104;15.432;2022-12-29T00:01:55;-0.10;82.40
16116;DHT22;8162;47.104;15.432;2022-12-29T00:04:21;-0.10;82.70
16116;DHT22;8162;47.104;15.432;2022-12-29T00:06:47;-0.20;83.00
16116;DHT22;8162;47.104;15.432;2022-12-29T00:09:15;-0.30;83.30
16116;DHT22;8162;47.104;15.432;2022-12-29T00:11:41;-0.30;83.00
16116;DHT22;8162;47.104;15.432;2022-12-29T00:14:09;-0.30;82.80
16116;DHT22;8162;47.104;15.432;2022-12-29T00:16:53;-0.30;82.70
16116;DHT22;8162;47.104;15.432;2022-12-29T00:19:20;-0.30;82.60
16116;DHT22;8162;47.104;15.432;2022-12-29T00:22:04;-0.30;82.50
16116;DHT22;8162;47.104;15.432;2022-12-29T00:24:48;-0.30;82.50
16116;DHT22;8162;47.104;15.432;2022-12-29T00:27:20;-0.30;82.60
16116;DHT22;8162;47.104;15.432;2022-12-29T00:30:10;-0.30;82.70
16116;DHT22;8162;47.104;15.432;2022-12-29T00:32:54;-0.40;82.80
16116;DHT22;8162;47.104;15.432;2022-12-29T00:35:53;-0.30;82.80
16116;DHT22;8162;47.104;15.432;2022-12-29T00:38:20;-0.40;83.20
16116;DHT22;8162;47.104;15.432;2022-12-29T00:41:05;-0.40;83.30
16116;DHT22;8162;47.104;15.432;2022-12-29T00:43:49;-0.40;83.50
16116;DHT22;8162;47.104;15.432;2022-12-29T00:46:34;-0.40;83.70
16116;DHT22;8162;47.104;15.432;2022-12-29T00:49:01;-0.40;83.90
16116;DHT22;8162;47.104;15.432;2022-12-29T00:51:46;-0.40;84.00
16116;DHT22;8162;47.104;15.432;2022-12-29T00:54:12;-0.30;83.70
16116;DHT22;8162;47.104;15.432;2022-12-29T00:56:37;-0.40;83.80
16116;DHT22;8162;47.104;15.432;2022-12-29T00:59:05;-0.40;83.80
16116;DHT22;8162;47.104;15.432;2022-12-29T01:01:30;-0.30;84.00
16116;DHT22;8162;47.104;15.432;2022-12-29T01:03:56;-0.30;83.80
16116;DHT22;8162;47.104;15.432;2022-12-29T01:06:22;-0.30;83.70
16116;DHT22;8162;47.104;15.432;2022-12-29T01:08:48;-0.30;83.60
16116;DHT22;8162;47.104;15.432;2022-12-29T01:11:34;-0.30;83.60
16116;DHT22;8162;47.104;15.432;2022-12-29T01:13:59;-0.30;83.30
16116;DHT22;8162;47.104;15.432;2022-12-29T01:16:25;-0.50;83.90
16116;DHT22;8162;47.104;15.432;2022-12-29T01:18:51;-0.50;83.70
16116;DHT22;8162;47.104;15.432;2022-12-29T01:21:16;-0.50;83.70
16116;DHT22;8162;47.104;15.432;2022-12-29T01:23:42;-0.50;83.80
16116;DHT22;8162;47.104;15.432;2022-12-29T01:26:11;-0.50;83.90
16116;DHT22;8162;47.104;15.432;2022-12-29T01:28:37;-0.50;83.60
16116;DHT22;8162;47.104;15.432;2022-12-29T01:31:08;-0.50;83.50
16116;DHT22;8162;47.104;15.432;2022-12-29T01:33:34;-0.60;83.60
16116;DHT22;8162;47.104;15.432;2022-12-29T01:36:00;-0.60;83.60
16116;DHT22;8162;47.104;15.432;2022-12-29T01:38:26;-0.60;83.50
16116;DHT22;8162;47.104;15.432;2022-12-29T01:40:52;-0.60;84.20
16116;DHT22;8162;47.104;15.432;2022-12-29T01:43:17;-0.60;84.00
16116;DHT22;8162;47.104;15.432;2022-12-29T01:45:51;-0.70;84.30
16116;DHT22;8162;47.104;15.432;2022-12-29T01:48:19;-0.70;84.00
16116;DHT22;8162;47.104;15.432;2022-12-29T01:50:50;-0.70;83.90
16116;DHT22;8162;47.104;15.432;2022-12-29T01:53:32;-0.70;83.70
16116;DHT22;8162;47.104;15.432;2022-12-29T01:56:03;-0.70;84.00
16116;DHT22;8162;47.104;15.432;2022-12-29T01:58:34;-0.70;84.10
16116;DHT22;8162;47.104;15.432;2022-12-29T02:01:03;-0.70;84.00
16116;DHT22;8162;47.104;15.432;2022-12-29T02:03:30;-0.70;83.90
16116;DHT22;8162;47.104;15.432;2022-12-29T02:06:03;-0.70;83.70
16116;DHT22;8162;47.104;15.432;2022-12-29T02:08:31;-0.70;83.70
16116;DHT22;8162;47.104;15.432;2022-12-29T02:10:58;-0.70;83.70
16116;DHT22;8162;47.104;15.432;2022-12-29T02:13:25;-0.70;83.80
16116;DHT22;8162;47.104;15.432;2022-12-29T02:18:41;-1.00;84.90
16116;DHT22;8162;47.104;15.432;2022-12-29T02:30:05;-0.70;84.90
16116;DHT22;8162;47.104;15.432;2022-12-29T02:38:07;-0.60;85.70
16116;DHT22;8162;47.104;15.432;2022-12-29T02:40:53;-0.60;85.60
16116;DHT22;8162;47.104;15.432;2022-12-29T02:43:33;-0.50;85.60
16116;DHT22;8162;47.104;15.432;2022-12-29T02:48:46;-0.50;85.80
16116;DHT22;8162;47.104;15.432;2022-12-29T02:51:27;-0.40;85.70
16116;DHT22;8162;47.104;15.432;2022-12-29T02:53:56;-0.40;85.20
16116;DHT22;8162;47.104;15.432;2022-12-29T02:56:41;-0.50;85.70
16116;DHT22;8162;47.104;15.432;2022-12-29T02:59:07;-0.50;85.30
16116;DHT22;8162;47.104;15.432;2022-12-29T03:04:33;-0.50;85.10
16116;DHT22;8162;47.104;15.432;2022-12-29T03:07:50;-0.50;83.90
16116;DHT22;8162;47.104;15.432;2022-12-29T03:10:17;-0.70;83.90
16116;DHT22;8162;47.104;15.432;2022-12-29T03:16:06;-0.70;84.60
16116;DHT22;8162;47.104;15.432;2022-12-29T03:22:03;-0.70;84.50
16116;DHT22;8162;47.104;15.432;2022-12-29T03:24:49;-0.70;85.00
16116;DHT22;8162;47.104;15.432;2022-12-29T03:27:19;-0.70;84.80
16116;DHT22;8162;47.104;15.432;2022-12-29T03:29:54;-0.70;85.00
16116;DHT22;8162;47.104;15.432;2022-12-29T03:32:28;-0.70;85.20
16116;DHT22;8162;47.104;15.432;2022-12-29T03:34:57;-0.70;85.40
16116;DHT22;8162;47.104;15.432;2022-12-29T03:37:34;-0.70;85.30
16116;DHT22;8162;47.104;15.432;2022-12-29T03:40:01;-0.70;85.80
16116;DHT22;8162;47.104;15.432;2022-12-29T03:42:30;-0.70;85.60
16116;DHT22;8162;47.104;15.432;2022-12-29T03:44:57;-0.70;85.70
16116;DHT22;8162;47.104;15.432;2022-12-29T03:47:24;-0.60;86.30
16116;DHT22;8162;47.104;15.432;2022-12-29T03:49:50;-0.50;85.90
16116;DHT22;8162;47.104;15.432;2022-12-29T03:52:17;-0.40;85.70
16116;DHT22;8162;47.104;15.432;2022-12-29T03:54:43;-0.30;85.70
16116;DHT22;8162;47.104;15.432;2022-12-29T03:57:09;-0.30;85.50
16116;DHT22;8162;47.104;15.432;2022-12-29T03:59:35;-0.30;85.20
16116;DHT22;8162;47.104;15.432;2022-12-29T04:02:01;-0.30;85.30
16116;DHT22;8162;47.104;15.432;2022-12-29T04:04:26;-0.30;85.10
16116;DHT22;8162;47.104;15.432;2022-12-29T04:06:52;-0.30;84.30
16116;DHT22;8162;47.104;15.432;2022-12-29T04:09:18;-0.30;84.80
16116;DHT22;8162;47.104;15.432;2022-12-29T04:11:43;-0.30;84.70
16116;DHT22;8162;47.104;15.432;2022-12-29T04:14:09;-0.30;84.60
16116;DHT22;8162;47.104;15.432;2022-12-29T04:16:35;-0.40;85.00
16116;DHT22;8162;47.104;15.432;2022-12-29T04:19:05;-0.30;84.80
16116;DHT22;8162;47.104;15.432;2022-12-29T04:21:31;-0.30;84.80
16116;DHT22;8162;47.104;15.432;2022-12-29T04:23:57;-0.30;85.10
16116;DHT22;8162;47.104;15.432;2022-12-29T04:26:23;-0.30;84.90
16116;DHT22;8162;47.104;15.432;2022-12-29T04:28:48;-0.30;85.00
16116;DHT22;8162;47.104;15.432;2022-12-29T04:31:14;-0.10;85.80
16116;DHT22;8162;47.104;15.432;2022-12-29T04:33:40;-0.10;85.80
16116;DHT22;8162;47.104;15.432;2022-12-29T04:36:06;0.00;85.60
16116;DHT22;8162;47.104;15.432;2022-12-29T04:38:31;0.10;85.20
16116;DHT22;8162;47.104;15.432;2022-12-29T04:40:59;0.30;84.70
16116;DHT22;8162;47.104;15.432;2022-12-29T04:43:25;0.30;84.00
16116;DHT22;8162;47.104;15.432;2022-12-29T04:45:51;0.40;83.70
16116;DHT22;8162;47.104;15.432;2022-12-29T04:48:16;0.50;83.60
16116;DHT22;8162;47.104;15.432;2022-12-29T04:50:43;0.50;82.50
16116;DHT22;8162;47.104;15.432;2022-12-29T04:53:08;0.40;82.60
16116;DHT22;8162;47.104;15.432;2022-12-29T04:55:34;0.40;82.40
16116;DHT22;8162;47.104;15.432;2022-12-29T04:58:00;0.50;82.50
16116;DHT22;8162;47.104;15.432;2022-12-29T05:00:26;0.40;82.60
16116;DHT22;8162;47.104;15.432;2022-12-29T05:02:51;0.40;82.40
16116;DHT22;8162;47.104;15.432;2022-12-29T05:05:18;0.40;82.10
16116;DHT22;8162;47.104;15.432;2022-12-29T05:07:44;0.30;82.20
16116;DHT22;8162;47.104;15.432;2022-12-29T05:10:10;0.20;82.10
16116;DHT22;8162;47.104;15.432;2022-12-29T05:12:37;0.20;82.00
16116;DHT22;8162;47.104;15.432;2022-12-29T05:15:04;0.10;81.70
16116;DHT22;8162;47.104;15.432;2022-12-29T05:17:30;0.00;82.00
16116;DHT22;8162;47.104;15.432;2022-12-29T05:19:56;0.00;82.00
16116;DHT22;8162;47.104;15.432;2022-12-29T05:22:21;0.00;82.20
16116;DHT22;8162;47.104;15.432;2022-12-29T05:24:47;0.00;82.10
16116;DHT22;8162;47.104;15.432;2022-12-29T05:27:13;-0.10;82.30
16116;DHT22;8162;47.104;15.432;2022-12-29T05:29:39;-0.10;82.00
16116;DHT22;8162;47.104;15.432;2022-12-29T05:32:04;-0.30;82.10
16116;DHT22;8162;47.104;15.432;2022-12-29T05:34:30;-0.40;82.70
16116;DHT22;8162;47.104;15.432;2022-12-29T05:36:56;-0.40;82.80
16116;DHT22;8162;47.104;15.432;2022-12-29T05:39:21;-0.40;83.30
16116;DHT22;8162;47.104;15.432;2022-12-29T05:41:47;-0.40;83.30
16116;DHT22;8162;47.104;15.432;2022-12-29T05:44:13;-0.40;83.40
16116;DHT22;8162;47.104;15.432;2022-12-29T05:46:38;-0.30;83.70
16116;DHT22;8162;47.104;15.432;2022-12-29T05:49:05;-0.30;84.50
16116;DHT22;8162;47.104;15.432;2022-12-29T05:51:31;-0.30;83.90
16116;DHT22;8162;47.104;15.432;2022-12-29T05:53:56;-0.20;83.80
16116;DHT22;8162;47.104;15.432;2022-12-29T05:56:23;-0.20;83.80
16116;DHT22;8162;47.104;15.432;2022-12-29T05:58:48;-0.20;83.70
16116;DHT22;8162;47.104;15.432;2022-12-29T06:01:14;-0.20;84.00
16116;DHT22;8162;47.104;15.432;2022-12-29T06:03:40;-0.20;83.90
16116;DHT22;8162;47.104;15.432;2022-12-29T06:06:06;-0.10;83.90
16116;DHT22;8162;47.104;15.432;2022-12-29T06:08:32;-0.10;83.80
16116;DHT22;8162;47.104;15.432;2022-12-29T06:10:58;-0.20;83.30
16116;DHT22;8162;47.104;15.432;2022-12-29T06:13:23;-0.20;83.60
16116;DHT22;8162;47.104;15.432;2022-12-29T06:15:49;-0.20;83.40
16116;DHT22;8162;47.104;15.432;2022-12-29T06:18:15;-0.20;83.40
16116;DHT22;8162;47.104;15.432;2022-12-29T06:20:41;-0.10;83.50
16116;DHT22;8162;47.104;15.432;2022-12-29T06:23:07;-0.20;83.70
16116;DHT22;8162;47.104;15.432;2022-12-29T06:25:32;-0.20;83.70
16116;DHT22;8162;47.104;15.432;2022-12-29T06:27:59;-0.10;83.50
16116;DHT22;8162;47.104;15.432;2022-12-29T06:30:25;-0.10;83.70
16116;DHT22;8162;47.104;15.432;2022-12-29T06:32:51;-0.10;83.70
16116;DHT22;8162;47.104;15.432;2022-12-29T06:35:16;-0.10;83.70
16116;DHT22;8162;47.104;15.432;2022-12-29T06:37:42;-0.10;83.40
16116;DHT22;8162;47.104;15.432;2022-12-29T06:40:09;-0.10;83.50
16116;DHT22;8162;47.104;15.432;2022-12-29T06:42:35;-0.10;83.20
16116;DHT22;8162;47.104;15.432;2022-12-29T06:45:01;-0.10;83.10
16116;DHT22;8162;47.104;15.432;2022-12-29T06:47:27;-0.10;82.80
16116;DHT22;8162;47.104;15.432;2022-12-29T06:49:52;-0.10;82.80
16116;DHT22;8162;47.104;15.432;2022-12-29T06:52:18;-0.20;83.20
16116;DHT22;8162;47.104;15.432;2022-12-29T06:54:44;-0.20;83.20
16116;DHT22;8162;47.104;15.432;2022-12-29T06:57:10;-0.20;83.20
16116;DHT22;8162;47.104;15.432;2022-12-29T06:59:35;-0.20;83.10
16116;DHT22;8162;47.104;15.432;2022-12-29T07:02:01;-0.10;83.30
16116;DHT22;8162;47.104;15.432;2022-12-29T07:04:30;-0.10;83.30
16116;DHT22;8162;47.104;15.432;2022-12-29T07:06:56;-0.10;83.20
16116;DHT22;8162;47.104;15.432;2022-12-29T07:09:22;0.00;83.20
16116;DHT22;8162;47.104;15.432;2022-12-29T07:11:47;0.00;83.10
16116;DHT22;8162;47.104;15.432;2022-12-29T07:14:13;0.00;83.00
16116;DHT22;8162;47.104;15.432;2022-12-29T07:16:39;0.00;83.00
16116;DHT22;8162;47.104;15.432;2022-12-29T07:19:04;0.00;83.20
16116;DHT22;8162;47.104;15.432;2022-12-29T07:21:30;0.20;83.00
16116;DHT22;8162;47.104;15.432;2022-12-29T07:23:56;0.20;82.90
16116;DHT22;8162;47.104;15.432;2022-12-29T07:26:22;0.30;82.90
16116;DHT22;8162;47.104;15.432;2022-12-29T07:28:47;0.30;82.40
16116;DHT22;8162;47.104;15.432;2022-12-29T07:31:19;0.30;82.10
16116;DHT22;8162;47.104;15.432;2022-12-29T07:33:46;0.30;82.20
16116;DHT22;8162;47.104;15.432;2022-12-29T07:36:13;0.40;82.30
16116;DHT22;8162;47.104;15.432;2022-12-29T07:38:40;0.50;81.90
16116;DHT22;8162;47.104;15.432;2022-12-29T07:41:06;0.60;81.40
16116;DHT22;8162;47.104;15.432;2022-12-29T07:43:32;0.70;81.40
16116;DHT22;8162;47.104;15.432;2022-12-29T07:45:57;0.80;81.30
16116;DHT22;8162;47.104;15.432;2022-12-29T07:48:23;0.80;81.00
16116;DHT22;8162;47.104;15.432;2022-12-29T07:50:49;0.80;81.00
16116;DHT22;8162;47.104;15.432;2022-12-29T07:53:15;0.80;81.00
16116;DHT22;8162;47.104;15.432;2022-12-29T07:55:41;0.90;80.60
16116;DHT22;8162;47.104;15.432;2022-12-29T07:58:07;0.90;80.50
16116;DHT22;8162;47.104;15.432;2022-12-29T08:00:33;0.90;80.50
16116;DHT22;8162;47.104;15.432;2022-12-29T08:02:58;0.90;80.40
16116;DHT22;8162;47.104;15.432;2022-12-29T08:05:24;1.00;80.30
16116;DHT22;8162;47.104;15.432;2022-12-29T08:07:50;1.00;80.40
16116;DHT22;8162;47.104;15.432;2022-12-29T08:10:16;1.00;80.20
16116;DHT22;8162;47.104;15.432;2022-12-29T08:12:42;1.10;80.00
16116;DHT22;8162;47.104;15.432;2022-12-29T08:15:09;1.20;79.10
16116;DHT22;8162;47.104;15.432;2022-12-29T08:17:36;1.30;79.00
16116;DHT22;8162;47.104;15.432;2022-12-29T08:20:02;1.40;78.70
16116;DHT22;8162;47.104;15.432;2022-12-29T08:22:28;1.50;78.20
16116;DHT22;8162;47.104;15.432;2022-12-29T08:24:53;1.60;78.00
16116;DHT22;8162;47.104;15.432;2022-12-29T08:27:19;1.70;77.70
16116;DHT22;8162;47.104;15.432;2022-12-29T08:29:45;1.80;77.10
16116;DHT22;8162;47.104;15.432;2022-12-29T08:32:11;1.90;76.30
16116;DHT22;8162;47.104;15.432;2022-12-29T08:34:37;2.00;76.20
16116;DHT22;8162;47.104;15.432;2022-12-29T08:37:03;2.10;76.70
16116;DHT22;8162;47.104;15.432;2022-12-29T08:39:29;2.00;77.00
16116;DHT22;8162;47.104;15.432;2022-12-29T08:41:55;2.10;77.20
16116;DHT22;8162;47.104;15.432;2022-12-29T08:44:21;2.10;76.40
16116;DHT22;8162;47.104;15.432;2022-12-29T08:46:46;2.20;76.70
16116;DHT22;8162;47.104;15.432;2022-12-29T08:49:12;2.30;75.50
16116;DHT22;8162;47.104;15.432;2022-12-29T08:51:38;2.40;75.10
16116;DHT22;8162;47.104;15.432;2022-12-29T08:54:04;2.50;74.10
16116;DHT22;8162;47.104;15.432;2022-12-29T08:56:30;2.60;73.90
16116;DHT22;8162;47.104;15.432;2022-12-29T08:58:55;2.70;73.10
16116;DHT22;8162;47.104;15.432;2022-12-29T09:01:21;2.80;72.90
16116;DHT22;8162;47.104;15.432;2022-12-29T09:03:47;2.80;73.20
16116;DHT22;8162;47.104;15.432;2022-12-29T09:06:15;2.90;72.90
16116;DHT22;8162;47.104;15.432;2022-12-29T09:08:42;2.90;73.20
16116;DHT22;8162;47.104;15.432;2022-12-29T09:11:17;2.90;73.30
16116;DHT22;8162;47.104;15.432;2022-12-29T09:13:43;3.10;72.60
16116;DHT22;8162;47.104;15.432;2022-12-29T09:16:09;3.20;71.60
16116;DHT22;8162;47.104;15.432;2022-12-29T09:18:36;3.30;71.20
16116;DHT22;8162;47.104;15.432;2022-12-29T09:21:04;3.40;70.80
16116;DHT22;8162;47.104;15.432;2022-12-29T09:23:31;3.50;70.50
16116;DHT22;8162;47.104;15.432;2022-12-29T09:25:56;3.50;70.70
16116;DHT22;8162;47.104;15.432;2022-12-29T09:28:23;3.50;71.20
16116;DHT22;8162;47.104;15.432;2022-12-29T09:30:49;3.60;70.60
16116;DHT22;8162;47.104;15.432;2022-12-29T09:33:16;3.80;69.50
16116;DHT22;8162;47.104;15.432;2022-12-29T09:35:50;3.90;69.00
16116;DHT22;8162;47.104;15.432;2022-12-29T09:38:16;3.90;69.00
16116;DHT22;8162;47.104;15.432;2022-12-29T09:40:44;3.90;69.00
16116;DHT22;8162;47.104;15.432;2022-12-29T09:45:45;4.00;67.90
16116;DHT22;8162;47.104;15.432;2022-12-29T09:48:23;4.10;68.10
16116;DHT22;8162;47.104;15.432;2022-12-29T09:50:55;4.10;68.00
16116;DHT22;8162;47.104;15.432;2022-12-29T09:53:27;4.10;67.90
16116;DHT22;8162;47.104;15.432;2022-12-29T09:55:58;4.20;67.10
16116;DHT22;8162;47.104;15.432;2022-12-29T09:58:41;4.20;67.40
16116;DHT22;8162;47.104;15.432;2022-12-29T10:03:49;4.30;67.20
16116;DHT22;8162;47.104;15.432;2022-12-29T10:06:39;4.40;66.50
16116;DHT22;8162;47.104;15.432;2022-12-29T10:09:11;4.50;66.60
16116;DHT22;8162;47.104;15.432;2022-12-29T10:14:27;4.60;66.20
16116;DHT22;8162;47.104;15.432;2022-12-29T10:25:22;5.00;65.70
16116;DHT22;8162;47.104;15.432;2022-12-29T10:27:49;5.10;65.80
16116;DHT22;8162;47.104;15.432;2022-12-29T10:30:16;5.10;65.50
16116;DHT22;8162;47.104;15.432;2022-12-29T10:35:21;5.30;65.00
16116;DHT22;8162;47.104;15.432;2022-12-29T10:38:19;5.50;64.70
16116;DHT22;8162;47.104;15.432;2022-12-29T10:43:27;5.70;63.80
16116;DHT22;8162;47.104;15.432;2022-12-29T10:45:59;5.80;62.30
16116;DHT22;8162;47.104;15.432;2022-12-29T10:48:32;6.00;62.40
16116;DHT22;8162;47.104;15.432;2022-12-29T10:51:00;6.00;62.20
16116;DHT22;8162;47.104;15.432;2022-12-29T10:53:37;6.10;62.20
16116;DHT22;8162;47.104;15.432;2022-12-29T10:56:27;6.10;62.40
16116;DHT22;8162;47.104;15.432;2022-12-29T10:58:56;6.10;62.50
16116;DHT22;8162;47.104;15.432;2022-12-29T11:01:25;6.20;62.90
16116;DHT22;8162;47.104;15.432;2022-12-29T11:04:00;6.20;62.80
16116;DHT22;8162;47.104;15.432;2022-12-29T11:06:28;6.20;61.90
16116;DHT22;8162;47.104;15.432;2022-12-29T11:09:12;6.40;61.00
16116;DHT22;8162;47.104;15.432;2022-12-29T11:11:39;6.40;60.90
16116;DHT22;8162;47.104;15.432;2022-12-29T11:14:18;6.50;60.10
16116;DHT22;8162;47.104;15.432;2022-12-29T11:16:44;6.60;59.60
16116;DHT22;8162;47.104;15.432;2022-12-29T11:19:26;6.70;60.00
16116;DHT22;8162;47.104;15.432;2022-12-29T11:21:52;6.80;59.40
16116;DHT22;8162;47.104;15.432;2022-12-29T11:24:27;6.90;58.20
16116;DHT22;8162;47.104;15.432;2022-12-29T11:26:55;7.00;57.70
16116;DHT22;8162;47.104;15.432;2022-12-29T11:29:29;7.00;58.00
16116;DHT22;8162;47.104;15.432;2022-12-29T11:32:17;7.00;58.70
16116;DHT22;8162;47.104;15.432;2022-12-29T11:34:43;7.00;58.40
16116;DHT22;8162;47.104;15.432;2022-12-29T11:37:18;7.00;58.70
16116;DHT22;8162;47.104;15.432;2022-12-29T11:40:05;7.20;57.70
16116;DHT22;8162;47.104;15.432;2022-12-29T11:42:52;7.30;57.10
16116;DHT22;8162;47.104;15.432;2022-12-29T11:45:24;7.30;57.90
16116;DHT22;8162;47.104;15.432;2022-12-29T11:47:54;7.40;56.70
16116;DHT22;8162;47.104;15.432;2022-12-29T11:50:23;7.50;56.70
16116;DHT22;8162;47.104;15.432;2022-12-29T11:52:50;7.70;56.10
16116;DHT22;8162;47.104;15.432;2022-12-29T11:55:25;7.80;55.50
16116;DHT22;8162;47.104;15.432;2022-12-29T11:57:53;8.00;55.40
16116;DHT22;8162;47.104;15.432;2022-12-29T12:00:22;8.10;56.50
16116;DHT22;8162;47.104;15.432;2022-12-29T12:03:22;8.20;54.60
16116;DHT22;8162;47.104;15.432;2022-12-29T12:05:58;8.30;54.40
16116;DHT22;8162;47.104;15.432;2022-12-29T12:08:39;8.50;53.20
16116;DHT22;8162;47.104;15.432;2022-12-29T12:11:28;8.50;53.60
16116;DHT22;8162;47.104;15.432;2022-12-29T12:17:09;8.60;54.00
16116;DHT22;8162;47.104;15.432;2022-12-29T12:19:47;8.70;52.80
16116;DHT22;8162;47.104;15.432;2022-12-29T12:24:49;8.90;53.40
16116;DHT22;8162;47.104;15.432;2022-12-29T12:30:03;9.00;51.90
16116;DHT22;8162;47.104;15.432;2022-12-29T12:41:17;9.40;50.70
16116;DHT22;8162;47.104;15.432;2022-12-29T12:44:10;9.40;50.40
16116;DHT22;8162;47.104;15.432;2022-12-29T12:49:53;9.70;49.80
16116;DHT22;8162;47.104;15.432;2022-12-29T12:55:47;9.70;50.00
16116;DHT22;8162;47.104;15.432;2022-12-29T12:58:41;9.80;49.10
16116;DHT22;8162;47.104;15.432;2022-12-29T13:30:04;10.40;48.40
16116;DHT22;8162;47.104;15.432;2022-12-29T13:40:49;10.40;48.80
16116;DHT22;8162;47.104;15.432;2022-12-29T13:43:16;10.40;48.60
16116;DHT22;8162;47.104;15.432;2022-12-29T13:45:43;10.50;49.30
16116;DHT22;8162;47.104;15.432;2022-12-29T13:48:18;10.50;49.40
16116;DHT22;8162;47.104;15.432;2022-12-29T13:50:52;10.50;49.80
16116;DHT22;8162;47.104;15.432;2022-12-29T14:01:43;10.50;49.80
16116;DHT22;8162;47.104;15.432;2022-12-29T14:04:22;10.50;48.90
16116;DHT22;8162;47.104;15.432;2022-12-29T14:07:06;10.50;48.90
16116;DHT22;8162;47.104;15.432;2022-12-29T14:12:40;10.40;50.00
16116;DHT22;8162;47.104;15.432;2022-12-29T14:17:36;10.40;49.80
16116;DHT22;8162;47.104;15.432;2022-12-29T14:20:03;10.40;49.60
16116;DHT22;8162;47.104;15.432;2022-12-29T14:22:30;10.40;49.60
16116;DHT22;8162;47.104;15.432;2022-12-29T14:24:56;10.30;50.00
16116;DHT22;8162;47.104;15.432;2022-12-29T14:29:49;10.30;50.40
16116;DHT22;8162;47.104;15.432;2022-12-29T14:34:54;10.20;49.70
16116;DHT22;8162;47.104;15.432;2022-12-29T14:42:49;10.20;48.50
16116;DHT22;8162;47.104;15.432;2022-12-29T14:47:44;10.10;48.40
16116;DHT22;8162;47.104;15.432;2022-12-29T14:58:27;9.50;51.40
16116;DHT22;8162;47.104;15.432;2022-12-29T15:00:54;9.30;52.20
16116;DHT22;8162;47.104;15.432;2022-12-29T15:03:29;9.10;52.30
16116;DHT22;8162;47.104;15.432;2022-12-29T15:08:26;8.80;53.60
16116;DHT22;8162;47.104;15.432;2022-12-29T15:11:04;8.50;54.80
16116;DHT22;8162;47.104;15.432;2022-12-29T15:13:39;8.30;55.00
16116;DHT22;8162;47.104;15.432;2022-12-29T15:16:25;8.10;56.00
16116;DHT22;8162;47.104;15.432;2022-12-29T15:18:52;7.80;57.30
16116;DHT22;8162;47.104;15.432;2022-12-29T15:21:25;7.60;57.70
16116;DHT22;8162;47.104;15.432;2022-12-29T15:23:52;7.50;58.30
16116;DHT22;8162;47.104;15.432;2022-12-29T15:26:20;7.40;58.60
16116;DHT22;8162;47.104;15.432;2022-12-29T15:28:51;7.20;59.20
16116;DHT22;8162;47.104;15.432;2022-12-29T15:31:22;7.20;59.30
16116;DHT22;8162;47.104;15.432;2022-12-29T15:33:52;7.10;58.90
16116;DHT22;8162;47.104;15.432;2022-12-29T15:36:23;7.00;59.40
16116;DHT22;8162;47.104;15.432;2022-12-29T15:38:50;6.90;59.20
16116;DHT22;8162;47.104;15.432;2022-12-29T15:41:32;6.90;59.30
16116;DHT22;8162;47.104;15.432;2022-12-29T15:44:25;6.80;59.60
16116;DHT22;8162;47.104;15.432;2022-12-29T15:46:51;6.60;60.10
16116;DHT22;8162;47.104;15.432;2022-12-29T15:49:17;6.60;60.30
16116;DHT22;8162;47.104;15.432;2022-12-29T15:51:44;6.50;60.50
16116;DHT22;8162;47.104;15.432;2022-12-29T15:54:18;6.50;60.50
16116;DHT22;8162;47.104;15.432;2022-12-29T15:56:45;6.40;60.40
16116;DHT22;8162;47.104;15.432;2022-12-29T15:59:26;6.30;61.00
16116;DHT22;8162;47.104;15.432;2022-12-29T16:01:54;6.20;61.20
16116;DHT22;8162;47.104;15.432;2022-12-29T16:04:21;6.10;61.50
16116;DHT22;8162;47.104;15.432;2022-12-29T16:07:02;5.90;62.10
16116;DHT22;8162;47.104;15.432;2022-12-29T16:09:40;5.80;62.40
16116;DHT22;8162;47.104;15.432;2022-12-29T16:12:19;5.70;62.50
16116;DHT22;8162;47.104;15.432;2022-12-29T16:15:02;5.50;63.10
16116;DHT22;8162;47.104;15.432;2022-12-29T16:17:30;5.50;63.60
16116;DHT22;8162;47.104;15.432;2022-12-29T16:20:14;5.30;64.40
16116;DHT22;8162;47.104;15.432;2022-12-29T16:22:46;5.20;64.40
16116;DHT22;8162;47.104;15.432;2022-12-29T16:25:22;5.20;64.20
16116;DHT22;8162;47.104;15.432;2022-12-29T16:27:49;5.10;64.40
16116;DHT22;8162;47.104;15.432;2022-12-29T16:30:22;5.10;64.40
16116;DHT22;8162;47.104;15.432;2022-12-29T16:32:52;5.10;63.90
16116;DHT22;8162;47.104;15.432;2022-12-29T16:35:47;5.30;63.20
16116;DHT22;8162;47.104;15.432;2022-12-29T16:38:18;5.30;63.20
16116;DHT22;8162;47.104;15.432;2022-12-29T16:40:57;5.30;63.70
16116;DHT22;8162;47.104;15.432;2022-12-29T16:43:31;5.30;64.00
16116;DHT22;8162;47.104;15.432;2022-12-29T16:49:10;5.10;63.70
16116;DHT22;8162;47.104;15.432;2022-12-29T16:51:21;5.10;63.70
16116;DHT22;8162;47.104;15.432;2022-12-29T16:53:51;5.10;64.30
16116;DHT22;8162;47.104;15.432;2022-12-29T16:56:20;5.10;64.00
16116;DHT22;8162;47.104;15.432;2022-12-29T16:58:48;5.00;64.70
16116;DHT22;8162;47.104;15.432;2022-12-29T17:01:16;5.00;64.30
16116;DHT22;8162;47.104;15.432;2022-12-29T17:03:49;5.10;64.00
16116;DHT22;8162;47.104;15.432;2022-12-29T17:06:17;5.00;64.20
16116;DHT22;8162;47.104;15.432;2022-12-29T17:08:45;5.00;64.20
16116;DHT22;8162;47.104;15.432;2022-12-29T17:15:04;5.00;64.80
16116;DHT22;8162;47.104;15.432;2022-12-29T17:17:10;4.90;65.10
16116;DHT22;8162;47.104;15.432;2022-12-29T17:19:37;4.80;65.30
16116;DHT22;8162;47.104;15.432;2022-12-29T17:22:12;4.70;65.40
16116;DHT22;8162;47.104;15.432;2022-12-29T17:24:38;4.70;65.60
16116;DHT22;8162;47.104;15.432;2022-12-29T17:27:04;4.50;66.20
16116;DHT22;8162;47.104;15.432;2022-12-29T17:29:38;4.50;66.20
16116;DHT22;8162;47.104;15.432;2022-12-29T17:32:09;4.40;66.90
16116;DHT22;8162;47.104;15.432;2022-12-29T17:34:35;4.30;67.20
16116;DHT22;8162;47.104;15.432;2022-12-29T17:37:01;4.20;67.60
16116;DHT22;8162;47.104;15.432;2022-12-29T17:39:27;4.00;68.20
16116;DHT22;8162;47.104;15.432;2022-12-29T17:41:53;3.90;68.30
16116;DHT22;8162;47.104;15.432;2022-12-29T17:44:20;3.70;68.50
16116;DHT22;8162;47.104;15.432;2022-12-29T17:46:47;3.70;68.50
16116;DHT22;8162;47.104;15.432;2022-12-29T17:49:15;3.60;68.90
16116;DHT22;8162;47.104;15.432;2022-12-29T17:51:42;3.50;68.80
16116;DHT22;8162;47.104;15.432;2022-12-29T17:54:35;3.50;69.20
16116;DHT22;8162;47.104;15.432;2022-12-29T17:57:00;3.30;69.70
16116;DHT22;8162;47.104;15.432;2022-12-29T17:59:26;3.30;69.90
16116;DHT22;8162;47.104;15.432;2022-12-29T18:01:52;3.20;70.20
16116;DHT22;8162;47.104;15.432;2022-12-29T18:04:19;3.10;70.20
16116;DHT22;8162;47.104;15.432;2022-12-29T18:06:45;3.10;70.30
16116;DHT22;8162;47.104;15.432;2022-12-29T18:09:12;3.00;70.90
16116;DHT22;8162;47.104;15.432;2022-12-29T18:11:40;2.90;71.10
16116;DHT22;8162;47.104;15.432;2022-12-29T18:14:14;2.90;71.10
16116;DHT22;8162;47.104;15.432;2022-12-29T18:16:41;2.80;71.30
16116;DHT22;8162;47.104;15.432;2022-12-29T18:19:07;2.80;71.70
16116;DHT22;8162;47.104;15.432;2022-12-29T18:21:33;2.70;72.00
16116;DHT22;8162;47.104;15.432;2022-12-29T18:24:00;2.60;72.20
16116;DHT22;8162;47.104;15.432;2022-12-29T18:26:28;2.50;72.90
16116;DHT22;8162;47.104;15.432;2022-12-29T18:28:59;2.50;73.30
16116;DHT22;8162;47.104;15.432;2022-12-29T18:31:27;2.50;73.60
16116;DHT22;8162;47.104;15.432;2022-12-29T18:33:53;2.40;74.20